createdAt,value
2022-08-02T00:00:58.891Z,57.12
2022-08-02T00:03:26.861Z,57.10
2022-08-02T00:05:54.795Z,57.48
2022-08-02T00:08:24.096Z,57.45
2022-08-02T00:10:52.126Z,57.39
2022-08-02T00:13:20.118Z,57.59
2022-08-02T00:15:48.065Z,57.73
2022-08-02T00:18:15.985Z,57.48
2022-08-02T00:20:44.006Z,57.71
2022-08-02T00:23:11.909Z,57.80
2022-08-02T00:25:54.737Z,57.98
2022-08-02T00:28:27.786Z,57.78
2022-08-02T00:30:56.768Z,57.92
2022-08-02T00:34:26.439Z,57.74
2022-08-02T00:36:12.577Z,57.93
2022-08-02T00:38:40.558Z,57.93
2022-08-02T00:41:14.512Z,57.87
2022-08-02T00:43:42.512Z,57.85
2022-08-02T00:46:10.573Z,57.95
2022-08-02T00:48:43.049Z,58.10
2022-08-02T00:51:11.211Z,58.24
2022-08-02T00:53:39.248Z,58.41
2022-08-02T00:56:07.228Z,58.28
2022-08-02T00:58:36.547Z,58.30
2022-08-02T01:01:04.635Z,58.24
2022-08-02T01:03:32.678Z,58.29
2022-08-02T01:06:15.663Z,58.28
2022-08-02T01:08:44.389Z,58.35
2022-08-02T01:11:12.505Z,58.34
2022-08-02T01:13:41.871Z,58.61
2022-08-02T01:16:15.491Z,58.39
2022-08-02T01:18:45.272Z,58.37
2022-08-02T01:21:25.688Z,58.53
2022-08-02T01:24:00.819Z,58.35
2022-08-02T01:26:40.445Z,58.32
2022-08-02T01:29:11.078Z,58.25
2022-08-02T01:31:41.933Z,58.25
2022-08-02T01:34:13.741Z,58.04
2022-08-02T01:36:44.198Z,58.16
2022-08-02T01:39:26.340Z,58.04
2022-08-02T01:42:00.185Z,58.00
2022-08-02T01:44:30.014Z,58.22
2022-08-02T01:46:58.781Z,58.15
2022-08-02T01:49:26.811Z,58.15
2022-08-02T01:52:12.218Z,58.15
2022-08-02T01:54:40.565Z,58.36
2022-08-02T01:57:08.644Z,58.27
2022-08-02T01:59:38.077Z,58.48
2022-08-02T02:02:06.054Z,58.42
2022-08-02T02:04:33.961Z,58.43
2022-08-02T02:07:01.907Z,58.59
2022-08-02T02:09:30.557Z,58.66
2022-08-02T02:12:06.075Z,58.19
2022-08-02T02:14:49.271Z,58.49
2022-08-02T02:17:52.668Z,58.46
2022-08-02T02:20:10.239Z,58.40
2022-08-02T02:22:38.212Z,58.64
2022-08-02T02:25:08.153Z,58.75
2022-08-02T02:27:39.921Z,58.67
2022-08-02T02:30:10.874Z,58.69
2022-08-02T02:32:38.762Z,58.94
2022-08-02T02:35:07.385Z,59.28
2022-08-02T02:37:35.365Z,59.16
2022-08-02T02:40:03.329Z,59.51
2022-08-02T02:42:32.907Z,59.28
2022-08-02T02:45:01.308Z,59.50
2022-08-02T02:47:40.730Z,59.32
2022-08-02T02:50:10.513Z,59.43
2022-08-02T02:52:38.880Z,59.32
2022-08-02T02:55:07.489Z,59.71
2022-08-02T02:57:35.527Z,59.73
2022-08-02T03:00:03.513Z,59.92
2022-08-02T03:02:32.856Z,59.71
2022-08-02T03:05:02.851Z,59.75
2022-08-02T03:07:30.813Z,59.94
2022-08-02T03:09:58.802Z,59.67
2022-08-02T03:12:31.867Z,60.09
2022-08-02T03:15:00.392Z,59.85
2022-08-02T03:17:39.664Z,59.81
2022-08-02T03:20:11.155Z,59.99
2022-08-02T03:22:39.150Z,59.74
2022-08-02T03:25:08.343Z,59.76
2022-08-02T03:27:36.312Z,60.01
2022-08-02T03:30:04.484Z,59.95
2022-08-02T03:32:32.429Z,59.88
2022-08-02T03:35:01.783Z,60.05
2022-08-02T03:37:29.821Z,59.81
2022-08-02T03:39:57.773Z,59.71
2022-08-02T03:42:26.002Z,59.77
2022-08-02T03:44:53.931Z,59.95
2022-08-02T03:47:21.904Z,59.72
2022-08-02T03:49:49.860Z,59.92
2022-08-02T03:52:19.250Z,60.13
2022-08-02T03:54:47.175Z,60.28
2022-08-02T03:57:15.135Z,60.60
2022-08-02T03:59:43.133Z,60.34
2022-08-02T04:02:11.494Z,60.39
2022-08-02T04:04:39.815Z,60.92
2022-08-02T04:07:07.927Z,61.08
2022-08-02T04:09:37.323Z,61.06
2022-08-02T04:12:06.010Z,61.21
2022-08-02T04:14:36.110Z,61.21
2022-08-02T04:17:07.253Z,61.42
2022-08-02T04:19:37.862Z,61.65
2022-08-02T04:22:06.147Z,61.80
2022-08-02T04:24:39.889Z,61.70
2022-08-02T04:27:49.025Z,61.76
2022-08-02T04:29:56.246Z,61.59
2022-08-02T04:32:24.188Z,61.75
2022-08-02T04:35:18.028Z,61.60
2022-08-02T04:38:08.838Z,61.80
2022-08-02T04:40:29.572Z,61.60
2022-08-02T04:42:57.540Z,61.65
2022-08-02T04:45:25.700Z,61.62
2022-08-02T04:48:01.904Z,61.68
2022-08-02T04:50:32.855Z,61.84
2022-08-02T04:53:00.815Z,61.68
2022-08-02T04:55:30.294Z,62.00
2022-08-02T04:57:58.709Z,62.05
2022-08-02T05:00:27.605Z,61.86
2022-08-02T05:02:56.680Z,61.87
2022-08-02T05:05:24.801Z,61.93
2022-08-02T05:07:52.767Z,61.87
2022-08-02T05:10:20.700Z,61.73
2022-08-02T05:12:50.106Z,61.91
2022-08-02T05:15:18.603Z,61.92
2022-08-02T05:17:48.268Z,61.84
2022-08-02T05:20:16.948Z,61.97
2022-08-02T05:22:45.417Z,61.81
2022-08-02T05:25:13.834Z,61.84
2022-08-02T05:27:41.931Z,61.85
2022-08-02T05:30:12.148Z,62.00
2022-08-02T05:32:47.396Z,61.74
2022-08-02T05:35:15.458Z,61.75
2022-08-02T05:37:43.430Z,61.73
2022-08-02T05:40:14.467Z,61.76
2022-08-02T05:42:43.722Z,61.79
2022-08-02T05:45:13.805Z,61.76
2022-08-02T05:47:41.865Z,61.35
2022-08-02T05:50:10.649Z,61.67
2022-08-02T05:52:45.592Z,61.48
2022-08-02T05:55:17.990Z,61.33
2022-08-02T05:57:53.744Z,61.38
2022-08-02T06:00:23.257Z,61.40
2022-08-02T06:03:04.323Z,61.29
2022-08-02T06:05:34.789Z,61.52
2022-08-02T06:08:08.679Z,61.50
2022-08-02T06:10:37.677Z,61.20
2022-08-02T06:13:10.169Z,61.33
2022-08-02T06:15:53.362Z,61.34
2022-08-02T06:18:27.838Z,61.25
2022-08-02T06:20:57.762Z,61.47
2022-08-02T06:23:27.136Z,61.39
2022-08-02T06:25:55.183Z,61.43
2022-08-02T06:28:23.385Z,61.59
2022-08-02T06:30:52.862Z,61.52
2022-08-02T06:33:20.935Z,61.60
2022-08-02T06:35:53.055Z,61.61
2022-08-02T06:38:25.255Z,61.65
2022-08-02T06:40:56.547Z,61.74
2022-08-02T06:43:27.570Z,61.84
2022-08-02T06:47:02.040Z,61.77
2022-08-02T06:48:45.381Z,61.75
2022-08-02T06:51:13.781Z,61.93
2022-08-02T06:53:51.091Z,61.77
2022-08-02T06:56:19.340Z,61.76
2022-08-02T06:58:47.249Z,61.82
2022-08-02T07:01:16.904Z,61.72
2022-08-02T07:03:44.924Z,61.66
2022-08-02T07:06:12.837Z,61.36
2022-08-02T07:08:40.761Z,61.31
2022-08-02T07:11:09.046Z,61.13
2022-08-02T07:13:39.806Z,61.29
2022-08-02T07:16:10.423Z,61.22
2022-08-02T07:18:39.856Z,61.23
2022-08-02T07:21:08.825Z,61.07
2022-08-02T07:23:36.979Z,61.07
2022-08-02T07:26:06.044Z,61.10
2022-08-02T07:28:34.132Z,60.99
2022-08-02T07:31:02.250Z,61.12
2022-08-02T07:33:37.516Z,61.24
2022-08-02T07:36:09.843Z,61.27
2022-08-02T07:38:45.732Z,61.24
2022-08-02T07:41:16.322Z,61.49
2022-08-02T07:43:57.396Z,61.10
2022-08-02T07:46:25.718Z,61.05
2022-08-02T07:48:56.996Z,61.00
2022-08-02T07:51:26.393Z,60.93
2022-08-02T07:54:02.212Z,60.84
2022-08-02T07:56:30.772Z,60.55
2022-08-02T07:58:58.713Z,60.43
2022-08-02T08:01:26.775Z,60.53
2022-08-02T08:03:54.762Z,60.49
2022-08-02T08:06:29.153Z,60.60
2022-08-02T08:08:58.798Z,60.17
2022-08-02T08:11:26.784Z,60.09
2022-08-02T08:13:54.820Z,59.90
2022-08-02T08:16:22.775Z,59.95
2022-08-02T08:18:50.866Z,60.02
2022-08-02T08:21:18.845Z,59.63
2022-08-02T08:23:46.876Z,59.28
2022-08-02T08:26:16.265Z,59.37
2022-08-02T08:28:44.261Z,59.18
2022-08-02T08:31:12.490Z,58.96
2022-08-02T08:33:40.602Z,59.06
2022-08-02T08:36:09.028Z,58.68
2022-08-02T08:38:37.004Z,58.59
2022-08-02T08:41:05.357Z,58.39
2022-08-02T08:43:38.188Z,58.50
2022-08-02T08:46:06.327Z,58.08
2022-08-02T08:48:34.384Z,58.01
2022-08-02T08:51:03.581Z,58.12
2022-08-02T08:53:36.519Z,57.68
2022-08-02T08:56:05.373Z,57.10
2022-08-02T08:58:33.368Z,57.19
2022-08-02T09:01:02.737Z,57.23
2022-08-02T09:03:34.096Z,56.52
2022-08-02T09:06:02.583Z,56.52
2022-08-02T09:08:33.208Z,56.63
2022-08-02T09:11:01.592Z,56.54
2022-08-02T09:13:45.108Z,55.64
2022-08-02T09:16:15.566Z,55.55
2022-08-02T09:18:45.550Z,55.27
2022-08-02T09:21:14.838Z,55.14
2022-08-02T09:23:43.848Z,54.79
2022-08-02T09:26:12.577Z,55.15
2022-08-02T09:28:41.526Z,54.04
2022-08-02T09:31:10.816Z,53.63
2022-08-02T09:33:40.785Z,53.62
2022-08-02T09:36:09.849Z,53.15
2022-08-02T09:38:37.982Z,53.84
2022-08-02T09:41:06.063Z,53.64
2022-08-02T09:43:38.761Z,53.76
2022-08-02T09:46:27.229Z,53.95
2022-08-02T09:48:57.447Z,53.93
2022-08-02T09:51:27.130Z,54.02
2022-08-02T09:54:07.937Z,54.35
2022-08-02T09:56:46.887Z,54.48
2022-08-02T09:59:15.038Z,54.42
2022-08-02T10:01:50.531Z,53.98
2022-08-02T10:04:22.816Z,53.90
2022-08-02T10:06:53.316Z,53.91
2022-08-02T10:09:21.494Z,53.97
2022-08-02T10:11:49.460Z,54.08
2022-08-02T10:14:18.279Z,54.24
2022-08-02T10:16:46.266Z,53.79
2022-08-02T10:19:14.217Z,53.61
2022-08-02T10:21:46.949Z,53.73
2022-08-02T10:24:16.130Z,54.00
2022-08-02T10:26:45.147Z,53.58
2022-08-02T10:29:16.574Z,53.55
2022-08-02T10:31:45.930Z,53.06
2022-08-02T10:34:16.072Z,52.80
2022-08-02T10:36:45.581Z,51.93
2022-08-02T10:39:13.615Z,52.09
2022-08-02T10:41:45.989Z,51.82
2022-08-02T10:44:29.830Z,51.20
2022-08-02T10:47:23.796Z,50.70
2022-08-02T10:49:53.025Z,50.76
2022-08-02T10:52:22.796Z,50.57
2022-08-02T10:54:56.386Z,50.21
2022-08-02T10:57:25.706Z,49.71
2022-08-02T10:59:55.865Z,49.61
2022-08-02T11:02:40.894Z,49.54
2022-08-02T11:05:13.859Z,49.59
2022-08-02T11:07:47.691Z,49.54
2022-08-02T11:10:37.866Z,49.90
2022-08-02T11:13:08.221Z,49.92
2022-08-02T11:15:52.522Z,49.41
2022-08-02T11:18:21.031Z,49.87
2022-08-02T11:20:49.044Z,49.41
2022-08-02T11:23:44.025Z,49.45
2022-08-02T11:26:45.412Z,49.65
2022-08-02T11:29:15.635Z,49.57
2022-08-02T11:31:45.054Z,49.63
2022-08-02T11:34:26.521Z,49.46
2022-08-02T11:37:01.239Z,48.97
2022-08-02T11:39:30.561Z,48.48
2022-08-02T11:41:59.247Z,48.83
2022-08-02T11:44:27.578Z,48.56
2022-08-02T11:46:56.762Z,48.61
2022-08-02T11:49:24.903Z,47.63
2022-08-02T11:51:57.566Z,47.70
2022-08-02T11:54:31.287Z,47.22
2022-08-02T11:57:19.771Z,47.19
2022-08-02T11:59:49.440Z,46.68
2022-08-02T12:02:17.642Z,47.28
2022-08-02T12:04:53.401Z,47.15
2022-08-02T12:07:35.288Z,47.80
2022-08-02T12:10:06.949Z,47.10
2022-08-02T12:12:35.070Z,47.11
2022-08-02T12:15:03.319Z,47.00
2022-08-02T12:17:48.949Z,46.93
2022-08-02T12:20:17.361Z,46.88
2022-08-02T12:22:45.497Z,46.71
2022-08-02T12:25:34.598Z,46.15
2022-08-02T12:28:17.962Z,46.17
2022-08-02T12:30:56.189Z,46.27
2022-08-02T12:33:24.488Z,46.41
2022-08-02T12:35:52.491Z,44.92
2022-08-02T12:38:20.468Z,43.57
2022-08-02T12:40:49.942Z,43.54
2022-08-02T12:43:19.458Z,43.87
2022-08-02T12:45:49.836Z,44.44
2022-08-02T12:48:19.147Z,44.96
2022-08-02T12:50:47.059Z,44.61
2022-08-02T12:53:16.014Z,44.93
2022-08-02T12:56:02.387Z,45.10
2022-08-02T12:58:31.884Z,44.16
2022-08-02T13:01:00.939Z,44.58
2022-08-02T13:04:11.854Z,44.58
2022-08-02T13:06:41.306Z,45.46
2022-08-02T13:09:07.200Z,45.87
2022-08-02T13:11:37.049Z,46.46
2022-08-02T13:14:05.109Z,46.45
2022-08-02T13:16:33.125Z,46.65
2022-08-02T13:19:01.235Z,46.63
2022-08-02T13:21:41.175Z,46.47
2022-08-02T13:24:33.138Z,46.75
2022-08-02T13:27:08.038Z,47.57
2022-08-02T13:29:36.602Z,47.66
2022-08-02T13:32:04.675Z,47.17
2022-08-02T13:34:33.104Z,46.89
2022-08-02T13:37:01.090Z,47.07
2022-08-02T13:39:29.044Z,47.01
2022-08-02T13:41:57.100Z,47.49
2022-08-02T13:44:26.434Z,47.76
2022-08-02T13:46:54.395Z,48.26
2022-08-02T13:49:50.790Z,48.48
2022-08-02T13:52:10.585Z,48.24
2022-08-02T13:54:38.805Z,48.56
2022-08-02T13:57:06.784Z,48.57
2022-08-02T13:59:57.457Z,49.09
2022-08-02T14:02:24.260Z,48.58
2022-08-02T14:04:52.291Z,49.26
2022-08-02T14:07:20.415Z,49.29
2022-08-02T14:09:48.354Z,49.46
2022-08-02T14:12:16.772Z,49.26
2022-08-02T14:14:46.414Z,48.98
2022-08-02T14:17:14.520Z,49.18
2022-08-02T14:19:42.525Z,48.66
2022-08-02T14:22:12.221Z,48.26
2022-08-02T14:24:41.530Z,47.48
2022-08-02T14:27:09.563Z,47.47
2022-08-02T14:29:37.612Z,47.33
2022-08-02T14:32:07.783Z,47.84
2022-08-02T14:34:35.761Z,47.89
2022-08-02T14:37:04.053Z,47.60
2022-08-02T14:39:42.978Z,47.51
2022-08-02T14:42:19.976Z,47.58
2022-08-02T14:44:47.929Z,46.95
2022-08-02T14:47:17.258Z,46.54
2022-08-02T14:49:49.860Z,46.33
2022-08-02T14:52:18.375Z,46.46
2022-08-02T14:54:46.864Z,46.26
2022-08-02T14:57:14.944Z,46.20
2022-08-02T14:59:42.908Z,46.16
2022-08-02T15:02:13.206Z,45.65
2022-08-02T15:04:43.904Z,46.17
2022-08-02T15:07:12.777Z,45.61
2022-08-02T15:09:40.926Z,46.08
2022-08-02T15:12:10.008Z,46.47
2022-08-02T15:14:38.142Z,46.86
2022-08-02T15:17:06.132Z,47.08
2022-08-02T15:19:56.306Z,47.36
2022-08-02T15:22:23.462Z,47.39
2022-08-02T15:24:52.130Z,48.13
2022-08-02T15:27:20.255Z,47.89
2022-08-02T15:29:49.240Z,48.26
2022-08-02T15:32:18.833Z,48.71
2022-08-02T15:34:47.483Z,48.81
2022-08-02T15:37:15.613Z,49.13
2022-08-02T15:39:45.182Z,49.60
2022-08-02T15:42:13.577Z,49.83
2022-08-02T15:44:41.771Z,49.83
2022-08-02T15:47:09.956Z,50.50
2022-08-02T15:49:41.348Z,50.11
2022-08-02T15:52:10.027Z,50.19
2022-08-02T15:54:38.323Z,50.55
2022-08-02T15:57:07.942Z,51.29
2022-08-02T15:59:35.908Z,51.10
2022-08-02T16:02:04.617Z,51.20
2022-08-02T16:04:33.193Z,51.23
2022-08-02T16:07:01.365Z,51.98
2022-08-02T16:09:29.719Z,52.07
2022-08-02T16:11:57.868Z,52.13
2022-08-02T16:14:27.252Z,51.56
2022-08-02T16:16:57.296Z,51.80
2022-08-02T16:19:46.693Z,51.71
2022-08-02T16:22:13.493Z,52.47
2022-08-02T16:24:41.571Z,52.17
2022-08-02T16:27:11.714Z,52.53
2022-08-02T16:29:41.068Z,52.70
2022-08-02T16:32:09.137Z,52.82
2022-08-02T16:34:57.138Z,52.69
2022-08-02T16:37:51.994Z,52.87
2022-08-02T16:40:18.001Z,53.11
2022-08-02T16:42:55.353Z,53.05
2022-08-02T16:45:24.953Z,53.42
2022-08-02T16:47:57.389Z,53.03
2022-08-02T16:50:29.349Z,53.38
2022-08-02T16:52:58.551Z,53.21
2022-08-02T16:55:30.483Z,53.42
2022-08-02T16:57:59.036Z,53.80
2022-08-02T17:00:28.756Z,53.75
2022-08-02T17:02:59.148Z,53.92
2022-08-02T17:05:29.775Z,53.39
2022-08-02T17:08:17.244Z,53.81
2022-08-02T17:10:45.644Z,53.96
2022-08-02T17:13:13.718Z,53.63
2022-08-02T17:16:08.730Z,53.84
2022-08-02T17:18:33.136Z,54.17
2022-08-02T17:21:04.053Z,54.05
2022-08-02T17:24:06.194Z,54.29
2022-08-02T17:26:20.199Z,54.22
2022-08-02T17:29:16.318Z,54.50
2022-08-02T17:34:27.032Z,54.16
2022-08-02T17:36:56.605Z,54.15
2022-08-02T17:39:24.533Z,54.15
2022-08-02T17:42:02.753Z,54.49
2022-08-02T17:44:36.448Z,54.39
2022-08-02T17:47:08.803Z,54.24
2022-08-02T17:49:43.998Z,54.09
2022-08-02T17:52:50.272Z,54.39
2022-08-02T17:55:04.450Z,54.55
2022-08-02T17:57:56.070Z,54.48
2022-08-02T18:00:21.358Z,54.63
2022-08-02T18:02:52.930Z,54.69
2022-08-02T18:05:23.250Z,54.30
2022-08-02T18:07:55.503Z,54.49
2022-08-02T18:10:29.064Z,54.32
2022-08-02T18:12:57.030Z,54.31
2022-08-02T18:15:25.814Z,54.22
2022-08-02T18:17:57.003Z,54.20
2022-08-02T18:20:25.118Z,54.52
2022-08-02T18:22:55.800Z,54.34
2022-08-02T18:25:37.835Z,54.45
2022-08-02T18:28:14.791Z,54.48
2022-08-02T18:30:43.293Z,54.54
2022-08-02T18:33:58.786Z,54.40
2022-08-02T18:36:00.741Z,54.65
2022-08-02T18:38:31.040Z,54.97
2022-08-02T18:41:02.234Z,55.02
2022-08-02T18:43:31.105Z,55.30
2022-08-02T18:46:05.431Z,55.11
2022-08-02T18:48:46.202Z,55.53
2022-08-02T18:51:15.258Z,55.44
2022-08-02T18:53:43.410Z,55.62
2022-08-02T18:56:19.629Z,55.79
2022-08-02T18:58:52.105Z,56.13
2022-08-02T19:04:09.841Z,56.31
2022-08-02T19:06:38.148Z,56.61
2022-08-02T19:09:11.566Z,56.45
2022-08-02T19:11:47.491Z,56.44
2022-08-02T19:14:24.398Z,56.67
2022-08-02T19:16:56.645Z,56.52
2022-08-02T19:19:28.846Z,56.42
2022-08-02T19:22:17.808Z,56.57
2022-08-02T19:24:46.114Z,56.38
2022-08-02T19:27:15.688Z,56.66
2022-08-02T19:29:48.935Z,56.38
2022-08-02T19:32:42.375Z,56.69
2022-08-02T19:35:19.800Z,56.52
2022-08-02T19:37:58.933Z,56.81
2022-08-02T19:40:29.065Z,56.99
2022-08-02T19:44:23.977Z,56.93
2022-08-02T19:45:49.788Z,56.98
2022-08-02T19:48:24.136Z,57.13
2022-08-02T19:50:56.253Z,57.22
2022-08-02T19:53:29.200Z,56.94
2022-08-02T19:56:20.664Z,57.10
2022-08-02T19:58:51.418Z,56.97
2022-08-02T20:01:25.392Z,57.39
2022-08-02T20:03:56.556Z,57.40
2022-08-02T20:06:29.534Z,57.58
2022-08-02T20:09:03.458Z,57.38
2022-08-02T20:11:34.693Z,57.44
2022-08-02T20:14:04.366Z,57.75
2022-08-02T20:16:32.884Z,57.64
2022-08-02T20:19:03.143Z,57.93
2022-08-02T20:21:35.509Z,57.70
2022-08-02T20:24:06.527Z,57.97
2022-08-02T20:26:35.169Z,57.81
2022-08-02T20:29:04.080Z,58.20
2022-08-02T20:31:32.464Z,57.97
2022-08-02T20:34:00.609Z,58.25
2022-08-02T20:36:28.577Z,58.28
2022-08-02T20:38:57.951Z,58.33
2022-08-02T20:41:37.354Z,58.14
2022-08-02T20:44:15.802Z,58.25
2022-08-02T20:46:59.405Z,58.48
2022-08-02T20:49:41.194Z,58.31
2022-08-02T20:52:23.820Z,58.54
2022-08-02T20:54:56.005Z,58.66
2022-08-02T20:57:36.123Z,58.66
2022-08-02T21:00:16.668Z,58.86
2022-08-02T21:02:44.845Z,58.67
2022-08-02T21:05:17.168Z,58.74
2022-08-02T21:07:47.928Z,58.60
2022-08-02T21:10:23.995Z,58.83
2022-08-02T21:12:52.317Z,58.75
2022-08-02T21:15:20.225Z,58.84
2022-08-02T21:18:00.011Z,59.27
2022-08-02T21:20:32.283Z,59.03
2022-08-02T21:23:00.654Z,58.92
2022-08-02T21:25:42.704Z,58.91
2022-08-02T21:28:19.852Z,59.23
2022-08-02T21:30:53.861Z,58.88
2022-08-02T21:33:23.523Z,58.96
2022-08-02T21:35:52.287Z,59.01
2022-08-02T21:38:36.092Z,58.95
2022-08-02T21:41:11.305Z,58.94
2022-08-02T21:43:40.503Z,58.79
2022-08-02T21:46:14.643Z,58.89
2022-08-02T21:48:42.827Z,59.04
2022-08-02T21:51:16.086Z,59.52
2022-08-02T21:54:18.601Z,59.43
2022-08-02T21:56:36.181Z,59.79
2022-08-02T21:59:15.991Z,59.84
2022-08-02T22:01:52.956Z,60.03
2022-08-02T22:04:22.125Z,60.01
2022-08-02T22:06:50.083Z,60.02
2022-08-02T22:09:43.024Z,60.01
2022-08-02T22:12:10.214Z,59.92
2022-08-02T22:14:41.018Z,59.80
2022-08-02T22:17:13.396Z,60.03
2022-08-02T22:19:51.009Z,60.25
2022-08-02T22:22:28.745Z,59.91
2022-08-02T22:24:59.846Z,59.85
2022-08-02T22:28:12.006Z,59.86
2022-08-02T22:30:23.837Z,59.96
2022-08-02T22:33:15.015Z,59.86
2022-08-02T22:35:43.446Z,60.02
2022-08-02T22:38:16.325Z,60.07
2022-08-02T22:40:46.270Z,60.14
2022-08-02T22:43:23.007Z,60.00
2022-08-02T22:45:51.347Z,59.76
2022-08-02T22:48:20.412Z,59.83
2022-08-02T22:50:48.598Z,59.73
2022-08-02T22:53:35.727Z,59.90
2022-08-02T22:56:07.348Z,60.03
2022-08-02T22:58:46.603Z,55.87
2022-08-02T22:58:50.644Z,54.37
2022-08-02T23:01:25.890Z,59.83
2022-08-02T23:03:53.958Z,59.98
2022-08-02T23:06:22.573Z,60.09
2022-08-02T23:08:50.931Z,60.27
2022-08-02T23:11:18.967Z,60.28
2022-08-02T23:13:48.317Z,60.51
2022-08-02T23:16:37.442Z,60.38
2022-08-02T23:19:22.984Z,60.52
2022-08-02T23:22:01.766Z,60.60
2022-08-02T23:24:33.118Z,60.41
2022-08-02T23:27:01.446Z,60.34
2022-08-02T23:29:30.781Z,60.58
2022-08-02T23:31:59.037Z,60.55
2022-08-02T23:34:27.219Z,60.62
2022-08-02T23:36:55.265Z,60.33
2022-08-02T23:39:23.166Z,60.29
2022-08-02T23:41:55.209Z,60.32
2022-08-02T23:44:23.958Z,60.25
2022-08-02T23:46:53.446Z,60.31
2022-08-02T23:49:21.502Z,60.15
2022-08-02T23:51:49.561Z,60.29
2022-08-02T23:54:17.452Z,60.39
2022-08-02T23:56:45.443Z,60.37
2022-08-02T23:59:13.358Z,60.56
